createdAt,value
2017-08-17T00:01:49.430Z,17.30
2017-08-17T00:04:17.724Z,17.28
2017-08-17T00:06:46.085Z,17.27
2017-08-17T00:09:14.376Z,17.24
2017-08-17T00:11:42.710Z,17.15
2017-08-17T00:14:11.037Z,17.18
2017-08-17T00:16:39.349Z,17.18
2017-08-17T00:19:07.769Z,17.16
2017-08-17T00:21:36.093Z,17.14
2017-08-17T00:24:05.244Z,17.13
2017-08-17T00:26:33.581Z,17.07
2017-08-17T00:29:01.910Z,17.06
2017-08-17T00:31:30.385Z,17.02
2017-08-17T00:33:58.700Z,17.02
2017-08-17T00:36:27.764Z,17.02
2017-08-17T00:38:56.081Z,17.01
2017-08-17T00:41:24.425Z,16.95
2017-08-17T00:43:52.730Z,16.96
2017-08-17T00:46:21.795Z,16.93
2017-08-17T00:48:50.118Z,16.93
2017-08-17T00:51:18.421Z,16.91
2017-08-17T00:53:46.727Z,16.92
2017-08-17T00:56:15.088Z,16.92
2017-08-17T00:58:43.464Z,16.92
2017-08-17T01:01:11.852Z,16.91
2017-08-17T01:03:40.170Z,16.88
2017-08-17T01:06:09.331Z,16.86
2017-08-17T01:08:37.642Z,16.86
2017-08-17T01:11:06.810Z,16.87
2017-08-17T01:13:35.186Z,16.84
2017-08-17T01:16:03.502Z,16.82
2017-08-17T01:18:31.841Z,16.79
2017-08-17T01:21:00.146Z,16.72
2017-08-17T01:23:29.311Z,16.70
2017-08-17T01:25:57.685Z,16.68
2017-08-17T01:28:26.000Z,16.70
2017-08-17T01:30:55.061Z,16.70
2017-08-17T01:33:23.364Z,16.71
2017-08-17T01:35:52.529Z,16.70
2017-08-17T01:38:20.923Z,16.70
2017-08-17T01:40:49.244Z,16.73
2017-08-17T01:43:17.567Z,16.72
2017-08-17T01:45:45.876Z,16.76
2017-08-17T01:48:15.039Z,16.76
2017-08-17T01:50:43.352Z,16.75
2017-08-17T01:53:12.417Z,16.77
2017-08-17T01:55:40.724Z,16.77
2017-08-17T01:58:09.790Z,16.77
2017-08-17T02:00:38.100Z,16.76
2017-08-17T02:03:07.185Z,16.75
2017-08-17T02:05:36.292Z,16.72
2017-08-17T02:08:05.454Z,16.69
2017-08-17T02:10:33.757Z,16.66
2017-08-17T02:13:02.829Z,16.64
2017-08-17T02:15:31.211Z,16.62
2017-08-17T02:17:59.547Z,16.56
2017-08-17T02:20:27.862Z,16.56
2017-08-17T02:22:56.185Z,16.55
2017-08-17T02:25:24.498Z,16.54
2017-08-17T02:27:52.818Z,16.56
2017-08-17T02:30:21.982Z,16.57
2017-08-17T02:32:50.293Z,16.58
2017-08-17T02:35:19.482Z,16.57
2017-08-17T02:37:47.813Z,16.53
2017-08-17T02:40:16.217Z,16.51
2017-08-17T02:42:44.551Z,16.49
2017-08-17T02:45:12.873Z,16.44
2017-08-17T02:47:41.323Z,16.39
2017-08-17T02:50:09.650Z,16.34
2017-08-17T02:52:38.010Z,16.32
2017-08-17T02:55:06.341Z,16.32
2017-08-17T02:57:34.666Z,16.27
2017-08-17T03:00:03.063Z,16.26
2017-08-17T03:02:31.380Z,16.21
2017-08-17T03:04:59.710Z,16.19
2017-08-17T03:07:28.082Z,16.18
2017-08-17T03:09:56.463Z,16.19
2017-08-17T03:12:24.765Z,16.19
2017-08-17T03:14:53.938Z,16.21
2017-08-17T03:17:22.275Z,16.21
2017-08-17T03:19:50.585Z,16.23
2017-08-17T03:22:18.901Z,16.25
2017-08-17T03:24:48.061Z,16.26
2017-08-17T03:27:16.373Z,16.26
2017-08-17T03:29:45.538Z,16.26
2017-08-17T03:32:13.923Z,16.24
2017-08-17T03:34:42.228Z,16.23
2017-08-17T03:37:11.322Z,16.19
2017-08-17T03:39:40.385Z,16.18
2017-08-17T03:42:08.684Z,16.19
2017-08-17T03:44:37.853Z,16.21
2017-08-17T03:47:06.231Z,16.20
2017-08-17T03:49:34.609Z,16.20
2017-08-17T03:52:02.936Z,16.22
2017-08-17T03:54:31.277Z,16.23
2017-08-17T03:56:59.657Z,16.28
2017-08-17T03:59:28.021Z,16.30
2017-08-17T04:01:56.403Z,16.29
2017-08-17T04:04:24.786Z,16.30
2017-08-17T04:06:53.098Z,16.31
2017-08-17T04:09:22.187Z,16.35
2017-08-17T04:11:51.354Z,16.36
2017-08-17T04:14:19.730Z,16.38
2017-08-17T04:16:48.109Z,16.43
2017-08-17T04:19:16.429Z,16.47
2017-08-17T04:21:45.540Z,16.52
2017-08-17T04:24:13.850Z,16.57
2017-08-17T04:26:42.260Z,16.61
2017-08-17T04:29:10.567Z,16.69
2017-08-17T04:31:38.882Z,16.79
2017-08-17T04:34:07.185Z,16.90
2017-08-17T04:36:35.522Z,17.02
2017-08-17T04:39:03.933Z,17.12
2017-08-17T04:41:32.305Z,17.19
2017-08-17T04:44:00.629Z,17.24
2017-08-17T04:46:28.965Z,17.24
2017-08-17T04:48:57.345Z,17.20
2017-08-17T04:51:25.723Z,17.20
2017-08-17T04:53:54.118Z,17.17
2017-08-17T04:56:46.585Z,17.21
2017-08-17T04:59:14.901Z,17.27
2017-08-17T05:01:43.205Z,17.36
2017-08-17T05:04:11.534Z,17.47
2017-08-17T05:06:40.054Z,17.55
2017-08-17T05:09:08.360Z,17.69
2017-08-17T05:11:37.529Z,17.84
2017-08-17T05:14:05.841Z,17.93
2017-08-17T05:16:34.945Z,18.06
2017-08-17T05:19:04.017Z,18.18
2017-08-17T05:21:32.333Z,18.34
2017-08-17T05:24:00.641Z,18.49
2017-08-17T05:26:28.983Z,18.60
2017-08-17T05:28:57.310Z,18.72
2017-08-17T05:31:25.616Z,18.84
2017-08-17T05:33:54.783Z,18.86
2017-08-17T05:36:23.094Z,19.05
2017-08-17T05:38:52.169Z,19.25
2017-08-17T05:41:20.478Z,19.47
2017-08-17T05:43:48.790Z,19.69
2017-08-17T05:46:17.113Z,20.03
2017-08-17T05:48:46.196Z,20.69
2017-08-17T05:51:14.561Z,21.38
2017-08-17T05:53:42.872Z,21.88
2017-08-17T05:56:11.938Z,22.12
2017-08-17T05:58:40.309Z,22.14
2017-08-17T06:01:08.614Z,22.11
2017-08-17T06:03:37.792Z,22.18
2017-08-17T06:06:06.130Z,22.17
2017-08-17T06:08:34.438Z,22.23
2017-08-17T06:11:02.774Z,22.15
2017-08-17T06:13:31.079Z,22.03
2017-08-17T06:15:59.474Z,22.17
2017-08-17T06:18:27.866Z,22.51
2017-08-17T06:20:56.195Z,22.93
2017-08-17T06:23:24.514Z,23.70
2017-08-17T06:25:52.838Z,24.07
2017-08-17T06:28:21.144Z,24.43
2017-08-17T06:30:49.461Z,24.05
2017-08-17T06:33:17.822Z,23.85
2017-08-17T06:35:46.510Z,23.87
2017-08-17T06:38:14.818Z,24.11
2017-08-17T06:40:43.896Z,24.79
2017-08-17T06:43:12.211Z,25.28
2017-08-17T06:45:40.537Z,25.10
2017-08-17T06:48:08.909Z,24.85
2017-08-17T06:50:37.217Z,24.59
2017-08-17T06:53:06.302Z,24.68
2017-08-17T06:55:34.665Z,24.66
2017-08-17T06:58:03.058Z,24.38
2017-08-17T07:00:31.374Z,24.36
2017-08-17T07:02:59.697Z,24.53
2017-08-17T07:05:28.077Z,24.76
2017-08-17T07:07:56.385Z,24.97
2017-08-17T07:10:25.470Z,25.18
2017-08-17T07:12:54.537Z,25.15
2017-08-17T07:15:22.922Z,25.06
2017-08-17T07:17:52.250Z,25.09
2017-08-17T07:20:21.434Z,25.01
2017-08-17T07:22:49.741Z,25.07
2017-08-17T07:25:18.069Z,25.11
2017-08-17T07:27:46.449Z,25.09
2017-08-17T07:30:14.836Z,25.16
2017-08-17T07:32:43.221Z,25.29
2017-08-17T07:35:11.525Z,25.35
2017-08-17T07:37:40.677Z,25.44
2017-08-17T07:40:09.070Z,25.56
2017-08-17T07:42:37.388Z,25.61
2017-08-17T07:45:05.705Z,25.82
2017-08-17T07:47:34.093Z,26.10
2017-08-17T07:50:02.400Z,26.22
2017-08-17T07:52:31.502Z,26.20
2017-08-17T07:55:00.669Z,26.36
2017-08-17T07:57:29.054Z,26.56
2017-08-17T07:59:57.423Z,26.84
2017-08-17T08:02:25.802Z,27.14
2017-08-17T08:04:54.114Z,27.20
2017-08-17T08:07:23.285Z,27.25
2017-08-17T08:09:51.661Z,27.23
2017-08-17T08:12:19.977Z,27.41
2017-08-17T08:14:48.317Z,27.52
2017-08-17T08:17:16.690Z,27.48
2017-08-17T08:19:45.069Z,27.63
2017-08-17T08:22:13.412Z,27.91
2017-08-17T08:24:41.746Z,27.89
2017-08-17T08:27:10.927Z,28.16
2017-08-17T08:29:39.242Z,28.37
2017-08-17T08:32:07.589Z,28.59
2017-08-17T08:34:35.954Z,28.68
2017-08-17T08:37:04.277Z,29.13
2017-08-17T08:39:32.574Z,29.72
2017-08-17T08:42:00.897Z,29.90
2017-08-17T08:44:29.198Z,29.28
2017-08-17T08:46:58.287Z,29.12
2017-08-17T08:49:27.354Z,28.81
2017-08-17T08:51:55.732Z,28.23
2017-08-17T08:54:24.122Z,28.15
2017-08-17T08:56:52.486Z,28.71
2017-08-17T08:59:20.792Z,28.98
2017-08-17T09:01:49.858Z,29.24
2017-08-17T09:04:18.166Z,29.25
2017-08-17T09:06:47.338Z,29.08
2017-08-17T09:09:15.654Z,28.87
2017-08-17T09:11:43.987Z,28.59
2017-08-17T09:14:12.368Z,28.47
2017-08-17T09:16:40.669Z,28.49
2017-08-17T09:19:09.040Z,28.55
2017-08-17T09:21:37.402Z,28.23
2017-08-17T09:24:05.782Z,28.20
2017-08-17T09:26:34.086Z,28.07
2017-08-17T09:29:03.178Z,28.10
2017-08-17T09:31:32.246Z,28.46
2017-08-17T09:34:00.658Z,28.87
2017-08-17T09:36:29.838Z,28.87
2017-08-17T09:38:58.213Z,28.71
2017-08-17T09:41:26.591Z,28.19
2017-08-17T09:43:54.955Z,27.92
2017-08-17T09:46:23.258Z,28.16
2017-08-17T09:48:51.548Z,28.40
2017-08-17T09:51:20.694Z,28.39
2017-08-17T09:53:48.995Z,28.24
2017-08-17T09:56:17.304Z,27.89
2017-08-17T09:58:46.399Z,27.60
2017-08-17T10:01:15.497Z,27.36
2017-08-17T10:03:44.654Z,27.27
2017-08-17T10:06:13.035Z,27.37
2017-08-17T10:08:41.345Z,27.74
2017-08-17T10:11:10.413Z,28.24
2017-08-17T10:13:38.782Z,28.60
2017-08-17T10:16:07.170Z,28.87
2017-08-17T10:18:35.538Z,29.57
2017-08-17T10:21:03.851Z,30.57
2017-08-17T10:23:33.014Z,30.93
2017-08-17T10:26:01.315Z,30.87
2017-08-17T10:28:29.679Z,31.03
2017-08-17T10:30:57.984Z,31.97
2017-08-17T10:33:27.075Z,33.14
2017-08-17T10:35:56.145Z,35.35
2017-08-17T10:38:24.514Z,36.34
2017-08-17T10:40:52.903Z,36.42
2017-08-17T10:43:21.386Z,35.77
2017-08-17T10:45:49.750Z,35.25
2017-08-17T10:48:18.050Z,34.80
2017-08-17T10:50:46.419Z,34.22
2017-08-17T10:53:14.717Z,33.72
2017-08-17T10:55:43.839Z,33.49
2017-08-17T10:58:12.148Z,33.89
2017-08-17T11:00:40.446Z,34.03
2017-08-17T11:03:08.820Z,33.79
2017-08-17T11:05:37.202Z,33.42
2017-08-17T11:08:05.644Z,33.46
2017-08-17T11:10:34.156Z,33.73
2017-08-17T11:13:02.538Z,33.53
2017-08-17T11:15:30.918Z,33.82
2017-08-17T11:17:59.238Z,34.16
2017-08-17T11:20:27.554Z,35.09
2017-08-17T11:22:55.858Z,35.51
2017-08-17T11:25:24.225Z,35.55
2017-08-17T11:27:52.541Z,35.24
2017-08-17T11:30:21.601Z,34.86
2017-08-17T11:32:49.914Z,34.42
2017-08-17T11:35:18.236Z,33.94
2017-08-17T11:37:46.571Z,33.53
2017-08-17T11:40:14.874Z,32.95
2017-08-17T11:42:43.171Z,32.64
2017-08-17T11:45:11.488Z,32.65
2017-08-17T11:47:40.554Z,32.91
2017-08-17T11:50:08.928Z,33.20
2017-08-17T11:52:37.226Z,33.29
2017-08-17T11:55:05.595Z,33.61
2017-08-17T11:57:33.893Z,33.64
2017-08-17T12:00:02.966Z,33.48
2017-08-17T12:02:31.342Z,33.17
2017-08-17T12:04:59.700Z,33.00
2017-08-17T12:07:28.096Z,32.72
2017-08-17T12:09:56.475Z,32.84
2017-08-17T12:12:24.785Z,32.60
2017-08-17T12:14:53.952Z,32.57
2017-08-17T12:17:22.326Z,32.62
2017-08-17T12:19:50.641Z,32.48
2017-08-17T12:22:19.803Z,32.62
2017-08-17T12:24:48.183Z,32.55
2017-08-17T12:27:16.632Z,32.72
2017-08-17T12:29:44.941Z,32.95
2017-08-17T12:32:13.242Z,33.43
2017-08-17T12:34:42.409Z,33.73
2017-08-17T12:37:10.705Z,33.86
2017-08-17T12:39:39.014Z,33.71
2017-08-17T12:42:07.346Z,33.83
2017-08-17T12:44:35.661Z,33.63
2017-08-17T12:47:04.759Z,34.07
2017-08-17T12:49:34.023Z,34.39
2017-08-17T12:52:02.429Z,34.61
2017-08-17T12:54:31.645Z,34.54
2017-08-17T12:56:59.978Z,34.71
2017-08-17T12:59:28.329Z,34.39
2017-08-17T13:01:56.630Z,34.03
2017-08-17T13:04:25.014Z,33.65
2017-08-17T13:06:53.388Z,33.39
2017-08-17T13:09:21.685Z,33.09
2017-08-17T13:11:50.863Z,32.95
2017-08-17T13:14:19.173Z,32.95
2017-08-17T13:16:48.329Z,32.91
2017-08-17T13:19:16.707Z,32.80
2017-08-17T13:21:45.086Z,32.86
2017-08-17T13:24:13.464Z,32.88
2017-08-17T13:26:41.762Z,32.84
2017-08-17T13:29:10.064Z,32.82
2017-08-17T13:31:39.134Z,32.83
2017-08-17T13:34:07.450Z,32.73
2017-08-17T13:36:35.769Z,32.69
2017-08-17T13:39:04.085Z,32.75
2017-08-17T13:41:33.140Z,32.70
2017-08-17T13:44:01.482Z,32.66
2017-08-17T13:46:29.778Z,32.58
2017-08-17T13:48:58.079Z,32.55
2017-08-17T13:51:26.448Z,32.43
2017-08-17T13:53:54.755Z,32.38
2017-08-17T13:56:23.839Z,32.24
2017-08-17T13:58:52.143Z,32.20
2017-08-17T14:01:21.302Z,31.91
2017-08-17T14:03:49.675Z,31.62
2017-08-17T14:06:18.057Z,31.34
2017-08-17T14:08:46.353Z,31.20
2017-08-17T14:11:14.670Z,30.97
2017-08-17T14:13:42.982Z,30.80
2017-08-17T14:16:11.376Z,30.58
2017-08-17T14:18:39.751Z,30.55
2017-08-17T14:21:08.126Z,30.43
2017-08-17T14:23:36.514Z,30.31
2017-08-17T14:26:04.828Z,30.26
2017-08-17T14:28:33.160Z,30.27
2017-08-17T14:31:01.454Z,30.27
2017-08-17T14:33:29.781Z,30.32
2017-08-17T14:35:58.077Z,30.48
2017-08-17T14:38:26.394Z,30.58
2017-08-17T14:40:55.565Z,30.69
2017-08-17T14:43:23.871Z,30.74
2017-08-17T14:45:53.043Z,30.73
2017-08-17T14:48:21.377Z,30.59
2017-08-17T14:50:49.674Z,30.41
2017-08-17T14:53:17.977Z,30.36
2017-08-17T14:55:46.349Z,30.34
2017-08-17T14:58:14.650Z,30.28
2017-08-17T15:00:43.732Z,30.15
2017-08-17T15:03:12.101Z,30.07
2017-08-17T15:05:40.482Z,30.10
2017-08-17T15:08:08.862Z,30.15
2017-08-17T15:10:37.245Z,30.07
2017-08-17T15:13:05.618Z,30.04
2017-08-17T15:15:33.994Z,30.03
2017-08-17T15:18:02.289Z,30.11
2017-08-17T15:20:30.619Z,30.10
2017-08-17T15:22:58.922Z,29.98
2017-08-17T15:25:27.317Z,29.90
2017-08-17T15:27:55.629Z,29.71
2017-08-17T15:30:23.982Z,29.62
2017-08-17T15:32:52.344Z,29.75
2017-08-17T15:35:20.658Z,29.84
2017-08-17T15:37:49.823Z,29.87
2017-08-17T15:40:18.186Z,29.84
2017-08-17T15:42:46.572Z,29.68
2017-08-17T15:45:14.955Z,29.57
2017-08-17T15:47:43.351Z,29.48
2017-08-17T15:50:11.708Z,29.49
2017-08-17T15:52:40.087Z,29.44
2017-08-17T15:55:08.468Z,29.34
2017-08-17T15:57:36.855Z,29.19
2017-08-17T16:00:05.227Z,29.10
2017-08-17T16:02:33.605Z,29.08
2017-08-17T16:05:01.988Z,28.93
2017-08-17T16:07:30.291Z,28.80
2017-08-17T16:09:59.366Z,28.65
2017-08-17T16:12:27.676Z,28.52
2017-08-17T16:14:56.002Z,28.42
2017-08-17T16:17:24.297Z,28.37
2017-08-17T16:19:52.665Z,28.23
2017-08-17T16:22:20.982Z,28.05
2017-08-17T16:24:50.155Z,27.98
2017-08-17T16:27:18.485Z,27.92
2017-08-17T16:29:46.782Z,27.78
2017-08-17T16:32:15.093Z,27.73
2017-08-17T16:34:43.393Z,27.69
2017-08-17T16:37:11.723Z,27.63
2017-08-17T16:39:40.039Z,27.50
2017-08-17T16:42:09.210Z,27.32
2017-08-17T16:44:37.518Z,27.06
2017-08-17T16:47:06.587Z,26.86
2017-08-17T16:49:34.957Z,26.79
2017-08-17T16:52:03.249Z,26.77
2017-08-17T16:54:31.606Z,26.79
2017-08-17T16:56:59.978Z,26.77
2017-08-17T16:59:28.286Z,26.73
2017-08-17T17:01:57.350Z,26.69
2017-08-17T17:04:25.738Z,26.62
2017-08-17T17:06:54.109Z,26.51
2017-08-17T17:09:22.451Z,26.42
2017-08-17T17:11:50.766Z,26.33
2017-08-17T17:14:19.142Z,26.25
2017-08-17T17:16:47.529Z,26.20
2017-08-17T17:19:15.828Z,26.15
2017-08-17T17:21:44.973Z,26.16
2017-08-17T17:24:13.382Z,26.12
2017-08-17T17:26:42.374Z,26.08
2017-08-17T17:29:10.691Z,26.07
2017-08-17T17:31:39.025Z,26.05
2017-08-17T17:34:07.326Z,25.93
2017-08-17T17:36:35.661Z,25.80
2017-08-17T17:39:03.969Z,25.68
2017-08-17T17:41:32.269Z,25.63
2017-08-17T17:44:01.430Z,25.55
2017-08-17T17:46:29.733Z,25.48
2017-08-17T17:48:58.041Z,25.42
2017-08-17T17:51:26.337Z,25.36
2017-08-17T17:53:54.638Z,25.27
2017-08-17T17:56:22.934Z,25.21
2017-08-17T17:58:51.241Z,25.13
2017-08-17T18:01:19.538Z,25.09
2017-08-17T18:03:47.833Z,25.03
2017-08-17T18:06:16.141Z,24.93
2017-08-17T18:09:13.034Z,24.81
2017-08-17T18:11:41.351Z,24.68
2017-08-17T18:14:09.656Z,24.58
2017-08-17T18:16:38.745Z,24.46
2017-08-17T18:19:07.805Z,24.32
2017-08-17T18:21:36.122Z,24.16
2017-08-17T18:24:05.194Z,24.00
2017-08-17T18:26:33.534Z,23.90
2017-08-17T18:29:01.845Z,23.83
2017-08-17T18:31:30.150Z,23.72
2017-08-17T18:33:59.208Z,23.62
2017-08-17T18:36:27.517Z,23.54
2017-08-17T18:38:55.814Z,23.46
2017-08-17T18:41:24.122Z,23.33
2017-08-17T18:43:52.421Z,23.22
2017-08-17T18:46:20.723Z,23.14
2017-08-17T18:48:49.840Z,23.08
2017-08-17T18:51:18.901Z,23.03
2017-08-17T18:53:47.209Z,22.97
2017-08-17T18:56:16.302Z,22.92
2017-08-17T18:58:45.382Z,22.91
2017-08-17T19:01:14.493Z,22.88
2017-08-17T19:03:43.578Z,22.86
2017-08-17T19:06:12.649Z,22.80
2017-08-17T19:08:40.954Z,22.71
2017-08-17T19:11:10.021Z,22.64
2017-08-17T19:13:38.325Z,22.65
2017-08-17T19:16:06.627Z,22.64
2017-08-17T19:18:34.930Z,22.59
2017-08-17T19:21:03.244Z,22.57
2017-08-17T19:23:31.545Z,22.54
2017-08-17T19:26:00.715Z,22.50
2017-08-17T19:28:29.020Z,22.46
2017-08-17T19:30:57.450Z,22.42
2017-08-17T19:33:25.770Z,22.41
2017-08-17T19:35:54.938Z,22.41
2017-08-17T19:38:23.236Z,22.41
2017-08-17T19:40:52.300Z,22.38
2017-08-17T19:43:20.607Z,22.40
2017-08-17T19:45:49.717Z,22.40
2017-08-17T19:48:18.061Z,22.41
2017-08-17T19:50:46.434Z,22.39
2017-08-17T19:53:14.751Z,22.32
2017-08-17T19:55:43.909Z,22.25
2017-08-17T19:58:12.284Z,22.17
2017-08-17T20:00:40.585Z,22.13
2017-08-17T20:03:08.901Z,22.09
2017-08-17T20:05:37.222Z,21.99
2017-08-17T20:08:05.533Z,21.90
2017-08-17T20:10:33.864Z,21.87
2017-08-17T20:13:02.321Z,21.86
2017-08-17T20:15:30.621Z,21.89
2017-08-17T20:17:58.929Z,21.92
2017-08-17T20:20:27.292Z,21.95
2017-08-17T20:22:55.658Z,21.89
2017-08-17T20:25:23.970Z,21.90
2017-08-17T20:27:53.238Z,21.91
2017-08-17T20:30:21.622Z,21.90
2017-08-17T20:32:49.922Z,21.89
2017-08-17T20:35:19.025Z,21.87
2017-08-17T20:37:48.099Z,21.85
2017-08-17T20:40:16.518Z,21.78
2017-08-17T20:42:44.813Z,21.71
2017-08-17T20:45:13.130Z,21.64
2017-08-17T20:47:41.611Z,21.62
2017-08-17T20:50:09.982Z,21.62
2017-08-17T20:52:38.291Z,21.62
2017-08-17T20:55:07.459Z,21.58
2017-08-17T20:57:35.832Z,21.59
2017-08-17T21:00:04.211Z,21.66
2017-08-17T21:02:32.598Z,21.65
2017-08-17T21:05:00.914Z,21.61
2017-08-17T21:07:29.221Z,21.56
2017-08-17T21:09:57.530Z,21.49
2017-08-17T21:12:25.859Z,21.43
2017-08-17T21:14:54.171Z,21.42
2017-08-17T21:17:22.474Z,21.46
2017-08-17T21:19:50.782Z,21.45
2017-08-17T21:22:19.085Z,21.46
2017-08-17T21:24:47.401Z,21.41
2017-08-17T21:27:15.727Z,21.33
2017-08-17T21:29:44.148Z,21.25
2017-08-17T21:32:12.518Z,21.23
2017-08-17T21:34:40.922Z,21.18
2017-08-17T21:37:09.292Z,21.14
2017-08-17T21:39:37.670Z,21.13
2017-08-17T21:42:05.988Z,21.11
2017-08-17T21:44:34.324Z,21.09
2017-08-17T21:47:02.691Z,21.05
2017-08-17T21:49:31.066Z,21.03
2017-08-17T21:51:59.461Z,20.97
2017-08-17T21:54:27.771Z,20.91
2017-08-17T21:56:56.102Z,20.84
2017-08-17T21:59:24.405Z,20.76
2017-08-17T22:01:53.562Z,20.73
2017-08-17T22:04:21.955Z,20.70
2017-08-17T22:06:50.335Z,20.67
2017-08-17T22:09:18.657Z,20.63
2017-08-17T22:11:46.974Z,20.58
2017-08-17T22:14:15.274Z,20.53
2017-08-17T22:16:43.586Z,20.49
2017-08-17T22:19:11.889Z,20.45
2017-08-17T22:21:40.218Z,20.42
2017-08-17T22:24:09.294Z,20.39
2017-08-17T22:26:37.610Z,20.38
2017-08-17T22:29:05.923Z,20.39
2017-08-17T22:31:34.224Z,20.42
2017-08-17T22:34:02.548Z,20.46
2017-08-17T22:36:30.841Z,20.46
2017-08-17T22:38:59.154Z,20.50
2017-08-17T22:41:27.525Z,20.56
2017-08-17T22:43:55.842Z,20.64
2017-08-17T22:46:24.149Z,20.68
2017-08-17T22:48:52.465Z,20.72
2017-08-17T22:51:20.771Z,20.75
2017-08-17T22:53:49.122Z,20.79
2017-08-17T22:56:17.426Z,20.80
2017-08-17T22:58:45.743Z,20.78
2017-08-17T23:01:14.107Z,20.78
2017-08-17T23:03:42.412Z,20.78
2017-08-17T23:06:10.729Z,20.80
2017-08-17T23:08:39.788Z,20.82
2017-08-17T23:11:08.098Z,20.83
2017-08-17T23:13:37.170Z,20.85
2017-08-17T23:16:05.477Z,20.87
2017-08-17T23:18:34.539Z,20.88
2017-08-17T23:21:02.858Z,20.89
2017-08-17T23:23:31.162Z,20.92
2017-08-17T23:25:59.575Z,20.92
2017-08-17T23:28:27.951Z,20.96
2017-08-17T23:30:56.329Z,20.95
2017-08-17T23:33:24.653Z,20.99
2017-08-17T23:35:52.973Z,21.01
2017-08-17T23:38:21.278Z,21.01
2017-08-17T23:40:49.579Z,21.03
2017-08-17T23:43:17.885Z,21.04
2017-08-17T23:45:46.186Z,21.06
2017-08-17T23:48:14.493Z,21.07
2017-08-17T23:50:43.565Z,21.07
2017-08-17T23:53:11.873Z,21.05
2017-08-17T23:55:40.934Z,21.03
2017-08-17T23:58:09.266Z,20.99
